Adrian, Michigan
Current Conditions -  °F | °C
As of 3:16 AM on Saturday 25 Oct 2014 (Local Time) from KADG Reporting Station
Haze Haze  
Wind Chill:   Ceiling: Unl
Heat Index:   Visibility: 1.5mi
Dew Point:   Wind: 3mph
Humidity: 97%   Direction: 260°W
Pressure: 29.94"   Gusts: NA
Location:  41.9°N, 84.04°W
Report Text: KADG 250716Z AUTO 26003KT 1 1/2SM BR FEW085 07/07 A2994 RMK AO2 T00720067
Loading
Personal Weather Stations






























Interactive Weather Map
Tropical Storm Tracking
New forecast layout! Learn more

10-Day Weather Forecast

Advertisements
Track Severe Weather on mobile